PWSweather.com
Personal Weather Stations
Station Observations
WILS01
Leuven, WilseleBE 3012

LeuvenWilseleBE 3012

Lat: 50.89518, Lon: 4.69741

Elevation: 120

Station Type: DAVIS VP2

Latest ConditionsUpdated 11:29:54 AM GMT+01:01 Wednesday, Sep 2, 2015
Currently Today's Max Today's Min Today's Average
Temperature 64.9°F18.3°C 64.9°F18.3°C 51.6°F10.9°C 55.3°F12.9°C
Dew Point 55.9°F13.3°C 57.4°F14.1°C 50.2°F10.1°C 52.9°F11.6°C
Winds 2.0 mph SW3.2 kmh SW 2.0 mph SW3.2 kmh SW - 0.4 mph 0.6 kmh
Wind Gusts 2.7 mph4.3 kmh 3.1 mph5.0 kmh - -
Humidity 72% 96% 72% 92%
Pressure 30.02 in1016.6 mb 30.07 in1018.3 mb 30.02 in1016.6 mb -
Precipitation - 0.01 in0.3 mm - -
Hour Temp Dew Point Humidity Winds Wind Gusts Pressure Precip Precip Rate Daily Precip Total
11:29 AM 64.9°F18.3°C 55.9°F13.3°C 72% 2.0 mph SW3.2 kmh SW 2.7 mph4.3 kmh 30.02 in1016.6 mb - 0.00 in0.0 mm 0.01 in0.3 mm
11:19 AM 64.9°F18.3°C 56.7°F13.7°C 74% 2.0 mph SW3.2 kmh SW 1.8 mph2.9 kmh 30.02 in1016.6 mb - 0.00 in0.0 mm 0.01 in0.3 mm
11:08 AM 64.6°F18.1°C 57.4°F14.1°C 77% 2.0 mph SW3.2 kmh SW 1.8 mph2.9 kmh 30.02 in1016.6 mb - 0.00 in0.0 mm 0.01 in0.3 mm
10:58 AM 63.0°F17.2°C 57.4°F14.1°C 82% 0.9 mph WSW1.4 kmh WSW 1.6 mph2.6 kmh 30.02 in1016.6 mb - 0.00 in0.0 mm 0.01 in0.3 mm
10:47 AM 61.3°F16.3°C 55.9°F13.3°C 82% 2.0 mph SSW3.2 kmh SSW 1.3 mph2.1 kmh 30.03 in1016.9 mb - 0.00 in0.0 mm 0.01 in0.3 mm
10:37 AM 61.5°F16.4°C 56.1°F13.4°C 82% 2.0 mph SW3.2 kmh SW 1.6 mph2.6 kmh 30.03 in1016.9 mb - 0.00 in0.0 mm 0.01 in0.3 mm
10:27 AM 62.1°F16.7°C 57.0°F13.9°C 83% 1.3 mph SW2.1 kmh SW 3.1 mph5.0 kmh 30.03 in1016.9 mb - 0.00 in0.0 mm 0.01 in0.3 mm
10:17 AM 61.2°F16.2°C 57.0°F13.9°C 86% 2.0 mph SW3.2 kmh SW 1.1 mph1.8 kmh 30.03 in1016.9 mb - 0.00 in0.0 mm 0.01 in0.3 mm
10:06 AM 60.4°F15.8°C 56.3°F13.5°C 86% 0.9 mph SW1.4 kmh SW 1.1 mph1.8 kmh 30.03 in1016.9 mb - 0.00 in0.0 mm 0.01 in0.3 mm
09:55 AM 60.8°F16.0°C 56.5°F13.6°C 85% 0.9 mph SW1.4 kmh SW 1.3 mph2.1 kmh 30.03 in1016.9 mb - 0.00 in0.0 mm 0.01 in0.3 mm
09:45 AM 61.2°F16.2°C 57.0°F13.9°C 86% 0.9 mph SW1.4 kmh SW 0.9 mph1.4 kmh 30.03 in1016.9 mb - 0.00 in0.0 mm 0.01 in0.3 mm
09:34 AM 61.0°F16.1°C 57.2°F14.0°C 87% 0.9 mph SE1.4 kmh SE 0.4 mph0.6 kmh 30.03 in1016.9 mb - 0.00 in0.0 mm 0.01 in0.3 mm
09:24 AM 60.1°F15.6°C 57.0°F13.9°C 89% 0.7 mph SSW1.1 kmh SSW 1.3 mph2.1 kmh 30.03 in1016.9 mb - 0.00 in0.0 mm 0.01 in0.3 mm
09:14 AM 59.0°F15.0°C 56.3°F13.5°C 91% Calm Calm 0.9 mph1.4 kmh 30.03 in1016.9 mb - 0.00 in0.0 mm 0.01 in0.3 mm
09:03 AM 58.5°F14.7°C 56.1°F13.4°C 92% Calm Calm 0.4 mph0.6 kmh 30.03 in1016.9 mb - 0.00 in0.0 mm 0.01 in0.3 mm
08:52 AM 57.9°F14.4°C 55.9°F13.3°C 93% 0.9 mph SW1.4 kmh SW 0.4 mph0.6 kmh 30.03 in1016.9 mb - 0.00 in0.0 mm 0.01 in0.3 mm
08:42 AM 55.9°F13.3°C 54.5°F12.5°C 95% 0.9 mph SW1.4 kmh SW 0.2 mph0.3 kmh 30.03 in1016.9 mb - 0.00 in0.0 mm 0.01 in0.3 mm
08:32 AM 55.0°F12.8°C 53.6°F12.0°C 95% 0.9 mph SW1.4 kmh SW 0.9 mph1.4 kmh 30.03 in1016.9 mb - 0.00 in0.0 mm 0.01 in0.3 mm
08:21 AM 54.7°F12.6°C 53.2°F11.8°C 95% 0.9 mph SW1.4 kmh SW 0.4 mph0.6 kmh 30.03 in1016.9 mb - 0.00 in0.0 mm 0.01 in0.3 mm
08:11 AM 54.5°F12.5°C 53.2°F11.8°C 95% 0.9 mph SW1.4 kmh SW 0.9 mph1.4 kmh 30.03 in1016.9 mb - 0.00 in0.0 mm 0.01 in0.3 mm
08:01 AM 54.1°F12.3°C 53.1°F11.7°C 96% 0.9 mph SW1.4 kmh SW 0.9 mph1.4 kmh 30.03 in1016.9 mb - 0.00 in0.0 mm 0.01 in0.3 mm
07:51 AM 53.6°F12.0°C 52.5°F11.4°C 96% Calm Calm 1.3 mph2.1 kmh 30.03 in1016.9 mb - 0.00 in0.0 mm 0.01 in0.3 mm
07:40 AM 53.1°F11.7°C 52.0°F11.1°C 96% 0.7 mph WSW1.1 kmh WSW 1.1 mph1.8 kmh 30.03 in1016.9 mb - 0.00 in0.0 mm 0.01 in0.3 mm
07:30 AM 52.7°F11.5°C 51.6°F10.9°C 96% Calm Calm -- 30.03 in1016.9 mb - 0.00 in0.0 mm 0.01 in0.3 mm
07:19 AM 52.3°F11.3°C 51.3°F10.7°C 96% Calm Calm -- 30.03 in1016.9 mb - 0.00 in0.0 mm 0.01 in0.3 mm
07:09 AM 52.0°F11.1°C 50.9°F10.5°C 96% Calm Calm -- 30.03 in1016.9 mb - 0.00 in0.0 mm 0.01 in0.3 mm
06:58 AM 51.6°F10.9°C 50.5°F10.3°C 96% Calm Calm -- 30.03 in1016.9 mb - 0.00 in0.0 mm 0.01 in0.3 mm
06:48 AM 51.6°F10.9°C 50.5°F10.3°C 96% Calm Calm -- 30.03 in1016.9 mb - 0.00 in0.0 mm 0.01 in0.3 mm
06:38 AM 51.6°F10.9°C 50.5°F10.3°C 96% Calm Calm -- 30.03 in1016.9 mb - 0.00 in0.0 mm 0.01 in0.3 mm
06:28 AM 51.6°F10.9°C 50.4°F10.2°C 95% Calm Calm -- 30.03 in1016.9 mb - 0.00 in0.0 mm 0.01 in0.3 mm
06:18 AM 51.6°F10.9°C 50.2°F10.1°C 95% Calm Calm -- 30.03 in1016.9 mb - 0.00 in0.0 mm 0.01 in0.3 mm
06:07 AM 52.0°F11.1°C 50.5°F10.3°C 95% Calm Calm -- 30.03 in1016.9 mb - 0.00 in0.0 mm 0.01 in0.3 mm
05:57 AM 52.0°F11.1°C 50.5°F10.3°C 95% Calm Calm 0.2 mph0.3 kmh 30.03 in1016.9 mb - 0.00 in0.0 mm 0.01 in0.3 mm
05:47 AM 52.2°F11.2°C 50.7°F10.4°C 95% Calm Calm -- 30.03 in1016.9 mb - 0.00 in0.0 mm 0.01 in0.3 mm
05:36 AM 52.3°F11.3°C 50.9°F10.5°C 95% Calm Calm -- 30.03 in1016.9 mb - 0.00 in0.0 mm 0.01 in0.3 mm
05:26 AM 52.5°F11.4°C 51.1°F10.6°C 95% Calm Calm 0.2 mph0.3 kmh 30.03 in1016.9 mb - 0.00 in0.0 mm 0.00 in0.0 mm
05:15 AM 52.5°F11.4°C 51.1°F10.6°C 95% Calm Calm -- 30.03 in1016.9 mb - 0.00 in0.0 mm 0.00 in0.0 mm
05:05 AM 52.7°F11.5°C 51.3°F10.7°C 95% Calm Calm 0.7 mph1.1 kmh 30.04 in1017.3 mb - 0.00 in0.0 mm 0.00 in0.0 mm
04:55 AM 52.5°F11.4°C 51.1°F10.6°C 95% Calm Calm -- 30.04 in1017.3 mb - 0.00 in0.0 mm 0.00 in0.0 mm
04:44 AM 52.5°F11.4°C 51.1°F10.6°C 95% Calm Calm -- 30.04 in1017.3 mb - 0.00 in0.0 mm 0.00 in0.0 mm
04:34 AM 52.7°F11.5°C 51.3°F10.7°C 95% Calm Calm -- 30.04 in1017.3 mb - 0.00 in0.0 mm 0.00 in0.0 mm
04:24 AM 52.9°F11.6°C 51.4°F10.8°C 95% Calm Calm -- 30.04 in1017.3 mb - 0.00 in0.0 mm 0.00 in0.0 mm
04:13 AM 53.1°F11.7°C 51.6°F10.9°C 95% Calm Calm 0.2 mph0.3 kmh 30.04 in1017.3 mb - 0.00 in0.0 mm 0.00 in0.0 mm
04:03 AM 53.2°F11.8°C 51.8°F11.0°C 95% Calm Calm -- 30.04 in1017.3 mb - 0.00 in0.0 mm 0.00 in0.0 mm
03:52 AM 53.4°F11.9°C 52.0°F11.1°C 95% Calm Calm -- 30.04 in1017.3 mb - 0.00 in0.0 mm 0.00 in0.0 mm
03:42 AM 53.8°F12.1°C 52.3°F11.3°C 95% Calm Calm -- 30.05 in1017.6 mb - 0.00 in0.0 mm 0.00 in0.0 mm
03:32 AM 53.8°F12.1°C 52.3°F11.3°C 95% Calm Calm -- 30.05 in1017.6 mb - 0.00 in0.0 mm 0.00 in0.0 mm
03:21 AM 53.6°F12.0°C 52.0°F11.1°C 94% Calm Calm -- 30.05 in1017.6 mb - 0.00 in0.0 mm 0.00 in0.0 mm
03:11 AM 53.8°F12.1°C 52.2°F11.2°C 94% Calm Calm -- 30.05 in1017.6 mb - 0.00 in0.0 mm 0.00 in0.0 mm
03:01 AM 53.6°F12.0°C 52.0°F11.1°C 94% Calm Calm -- 30.05 in1017.6 mb - 0.00 in0.0 mm 0.00 in0.0 mm
02:50 AM 53.8°F12.1°C 52.2°F11.2°C 94% Calm Calm -- 30.06 in1017.9 mb - 0.00 in0.0 mm 0.00 in0.0 mm
02:40 AM 53.8°F12.1°C 52.2°F11.2°C 94% Calm Calm -- 30.06 in1017.9 mb - 0.00 in0.0 mm 0.00 in0.0 mm
02:30 AM 54.0°F12.2°C 52.3°F11.3°C 94% Calm Calm -- 30.06 in1017.9 mb - 0.00 in0.0 mm 0.00 in0.0 mm
02:20 AM 54.0°F12.2°C 52.3°F11.3°C 94% Calm Calm -- 30.06 in1017.9 mb - 0.00 in0.0 mm 0.00 in0.0 mm
02:09 AM 54.0°F12.2°C 52.3°F11.3°C 94% Calm Calm 0.2 mph0.3 kmh 30.06 in1017.9 mb - 0.00 in0.0 mm 0.00 in0.0 mm
01:59 AM 54.0°F12.2°C 52.3°F11.3°C 94% Calm Calm -- 30.06 in1017.9 mb - 0.00 in0.0 mm 0.00 in0.0 mm
01:48 AM 54.0°F12.2°C 52.0°F11.1°C 93% Calm Calm -- 30.07 in1018.3 mb - 0.00 in0.0 mm 0.00 in0.0 mm
01:38 AM 54.0°F12.2°C 52.0°F11.1°C 93% Calm Calm -- 30.06 in1017.9 mb - 0.00 in0.0 mm 0.00 in0.0 mm
01:27 AM 53.8°F12.1°C 51.8°F11.0°C 93% Calm Calm -- 30.06 in1017.9 mb - 0.00 in0.0 mm 0.00 in0.0 mm
01:17 AM 53.8°F12.1°C 51.8°F11.0°C 93% Calm Calm -- 30.06 in1017.9 mb - 0.00 in0.0 mm 0.00 in0.0 mm
01:07 AM 53.8°F12.1°C 51.4°F10.8°C 92% Calm Calm -- 30.06 in1017.9 mb - 0.00 in0.0 mm 0.00 in0.0 mm
12:57 AM 53.8°F12.1°C 51.4°F10.8°C 92% Calm Calm -- 30.07 in1018.3 mb - 0.00 in0.0 mm 0.00 in0.0 mm
12:46 AM 54.0°F12.2°C 51.6°F10.9°C 92% Calm Calm -- 30.06 in1017.9 mb - 0.00 in0.0 mm 0.00 in0.0 mm
12:36 AM 54.3°F12.4°C 52.0°F11.1°C 92% Calm Calm -- 30.07 in1018.3 mb - 0.00 in0.0 mm 0.00 in0.0 mm
12:26 AM 54.3°F12.4°C 52.0°F11.1°C 92% Calm Calm -- 30.07 in1018.3 mb - 0.00 in0.0 mm 0.00 in0.0 mm
12:15 AM 54.5°F12.5°C 52.2°F11.2°C 92% Calm Calm -- 30.07 in1018.3 mb - 0.00 in0.0 mm 0.00 in0.0 mm
12:05 AM 54.7°F12.6°C 52.3°F11.3°C 92% Calm Calm -- 30.07 in1018.3 mb - 0.00 in0.0 mm 0.00 in0.0 mm